Time;durP1;ratioP1;P1;durP2;ratioP2;P2;SDS_P1;SDS_P2;PMS_P1;PMS_P2;Temp;Humidity;BMP_temperature;BMP_pressure;BME280_temperature;BME280_humidity;BME280_pressure;Samples;Min_cycle;Max_cycle;Signal;HPM_P1;HPM_P2
2023/06/07 00:02:19;0.00;0.00;0.62;0.00;0.00;0.62;3.43;2.83;;;29.20;23.30;;;;;;2252400;61;21007;-61
2023/06/07 00:05:10;0.00;0.00;0.62;0.00;0.00;0.62;3.50;2.80;;;29.20;23.20;;;;;;2252447;61;20363;-61
2023/06/07 00:07:54;0.00;0.00;0.62;0.00;0.00;0.62;3.63;3.20;;;29.20;23.20;;;;;;2252636;61;20398;-60
2023/06/07 00:10:40;0.00;0.00;0.62;0.00;0.00;0.62;3.00;2.70;;;29.20;23.20;;;;;;2252413;61;20970;-60
2023/06/07 00:13:25;0.00;0.00;0.62;0.00;0.00;0.62;3.80;3.00;;;29.20;23.20;;;;;;2249135;61;20378;-61
2023/06/07 00:16:10;0.00;0.00;0.62;0.00;0.00;0.62;3.00;2.70;;;29.30;23.30;;;;;;2252609;61;20425;-61
2023/06/07 00:18:57;0.00;0.00;0.62;0.00;0.00;0.62;3.07;2.70;;;29.30;23.30;;;;;;2252417;61;20362;-61
2023/06/07 00:21:44;0.00;0.00;0.62;0.00;0.00;0.62;3.13;2.60;;;29.30;23.30;;;;;;2252343;61;20398;-61
2023/06/07 00:24:29;0.00;0.00;0.62;0.00;0.00;0.62;3.20;2.90;;;29.20;23.20;;;;;;2252663;61;20947;-62
2023/06/07 00:27:14;0.00;0.00;0.62;0.00;0.00;0.62;3.80;2.83;;;29.20;23.20;;;;;;2252251;61;20427;-61
2023/06/07 00:29:59;0.00;0.00;0.62;0.00;0.00;0.62;3.57;3.23;;;29.30;23.30;;;;;;2252629;61;20465;-61
2023/06/07 00:32:45;0.00;0.00;0.62;0.00;0.00;0.62;3.30;3.00;;;29.30;23.30;;;;;;2252216;61;20467;-61
2023/06/07 00:35:30;0.00;0.00;0.62;0.00;0.00;0.62;3.80;2.90;;;29.20;23.20;;;;;;2249234;61;20475;-60
2023/06/07 00:38:17;0.00;0.00;0.62;0.00;0.00;0.62;3.27;2.73;;;29.20;23.20;;;;;;2252578;61;20362;-61
2023/06/07 00:41:02;0.00;0.00;0.62;0.00;0.00;0.62;4.00;3.00;;;29.20;23.20;;;;;;2249208;61;20449;-62
2023/06/07 00:43:47;0.00;0.00;0.62;0.00;0.00;0.62;3.00;2.63;;;29.20;23.20;;;;;;2249237;61;20366;-64
2023/06/07 00:46:33;0.00;0.00;0.62;0.00;0.00;0.62;3.83;3.27;;;29.20;23.20;;;;;;2252569;61;20370;-60
2023/06/07 00:49:18;0.00;0.00;0.62;0.00;0.00;0.62;3.57;2.97;;;29.20;23.20;;;;;;2249243;61;20969;-61
2023/06/07 00:52:05;0.00;0.00;0.62;0.00;0.00;0.62;3.43;3.10;;;29.20;23.20;;;;;;2252409;61;20387;-61
2023/06/07 00:54:52;0.00;0.00;0.62;0.00;0.00;0.62;4.93;3.13;;;29.20;23.20;;;;;;2249358;61;20445;-61
2023/06/07 00:57:38;0.00;0.00;0.62;0.00;0.00;0.62;3.80;3.30;;;29.30;23.20;;;;;;2252521;61;20408;-61
2023/06/07 01:00:23;0.00;0.00;0.62;0.00;0.00;0.62;3.83;2.80;;;29.20;23.20;;;;;;2252560;61;20466;-61
2023/06/07 01:03:11;0.00;0.00;0.62;0.00;0.00;0.62;3.80;3.40;;;29.20;23.20;;;;;;2252232;61;20378;-62
2023/06/07 01:05:57;0.00;0.00;0.62;0.00;0.00;0.62;3.47;3.10;;;29.20;23.20;;;;;;2249162;61;20853;-61
2023/06/07 01:08:43;0.00;0.00;0.62;0.00;0.00;0.62;4.47;3.30;;;29.20;23.10;;;;;;2252420;61;20391;-62
2023/06/07 01:11:29;0.00;0.00;0.62;0.00;0.00;0.62;2.90;2.50;;;29.20;23.10;;;;;;2252235;61;20844;-61
2023/06/07 01:14:16;0.00;0.00;0.62;0.00;0.00;0.62;3.20;2.90;;;29.20;23.10;;;;;;2249082;61;20402;-61
2023/06/07 01:17:02;0.00;0.00;0.62;0.00;0.00;0.62;3.30;2.53;;;29.20;23.20;;;;;;2252598;61;20362;-62
2023/06/07 01:19:53;0.00;0.00;0.62;0.00;0.00;0.62;3.67;3.00;;;29.20;23.10;;;;;;2249270;61;20374;-61
2023/06/07 01:22:42;0.00;0.00;0.62;0.00;0.00;0.62;5.10;3.43;;;29.20;23.20;;;;;;2252143;61;20417;-63
2023/06/07 01:25:28;0.00;0.00;0.62;0.00;0.00;0.62;3.70;3.20;;;29.20;23.10;;;;;;2249200;61;20358;-61
2023/06/07 01:28:14;0.00;0.00;0.62;0.00;0.00;0.62;3.50;3.20;;;29.20;23.20;;;;;;2252323;61;20780;-61
2023/06/07 01:31:02;0.00;0.00;0.62;0.00;0.00;0.62;3.83;3.03;;;29.20;23.20;;;;;;2252475;61;20442;-61
2023/06/07 01:33:47;0.00;0.00;0.62;0.00;0.00;0.62;4.07;3.33;;;29.20;23.20;;;;;;2252012;61;20509;-60
2023/06/07 01:36:33;0.00;0.00;0.62;0.00;0.00;0.62;4.47;3.27;;;29.20;23.10;;;;;;2252265;61;20406;-62
2023/06/07 01:39:20;0.00;0.00;0.62;0.00;0.00;0.62;3.13;2.80;;;29.20;23.20;;;;;;2252515;61;20362;-64
2023/06/07 01:42:08;0.00;0.00;0.62;0.00;0.00;0.62;3.83;3.00;;;29.20;23.20;;;;;;2252451;61;20510;-61
2023/06/07 01:44:55;0.00;0.00;0.62;0.00;0.00;0.62;3.77;2.90;;;29.20;23.20;;;;;;2252218;61;20363;-61
2023/06/07 01:47:40;0.00;0.00;0.62;0.00;0.00;0.62;4.20;3.30;;;29.20;23.20;;;;;;2252206;61;20928;-61
2023/06/07 01:50:27;0.00;0.00;0.62;0.00;0.00;0.62;4.00;3.13;;;29.20;23.20;;;;;;2252503;61;20382;-62
2023/06/07 01:53:12;0.00;0.00;0.62;0.00;0.00;0.62;3.57;3.00;;;29.20;23.70;;;;;;2252174;61;20463;-60
2023/06/07 01:56:05;0.00;0.00;0.62;0.00;0.00;0.62;3.50;2.80;;;29.20;23.20;;;;;;2248917;61;20482;-61
2023/06/07 01:59:02;0.00;0.00;0.62;0.00;0.00;0.62;5.77;2.77;;;29.10;23.20;;;;;;2249126;61;20394;-61
2023/06/07 02:01:57;0.00;0.00;0.62;0.00;0.00;0.62;3.60;3.27;;;29.20;23.20;;;;;;2248890;61;20382;-61
2023/06/07 02:04:46;0.00;0.00;0.62;0.00;0.00;0.62;4.07;3.67;;;29.10;23.20;;;;;;2252241;61;20355;-61
2023/06/07 02:07:40;0.00;0.00;0.62;0.00;0.00;0.62;3.20;2.67;;;29.10;23.20;;;;;;2249143;61;20363;-62
2023/06/07 02:10:28;0.00;0.00;0.62;0.00;0.00;0.62;3.80;3.17;;;29.10;23.20;;;;;;2249156;61;20450;-61
2023/06/07 02:13:14;0.00;0.00;0.62;0.00;0.00;0.62;3.10;2.80;;;29.10;23.20;;;;;;2252210;61;20378;-60
2023/06/07 02:16:00;0.00;0.00;0.62;0.00;0.00;0.62;4.77;3.07;;;29.10;23.20;;;;;;2252302;61;20860;-62
2023/06/07 02:18:45;0.00;0.00;0.62;0.00;0.00;0.62;4.30;3.20;;;29.10;23.20;;;;;;2248850;61;20363;-61
2023/06/07 02:21:31;0.00;0.00;0.62;0.00;0.00;0.62;4.17;3.03;;;29.10;23.20;;;;;;2252222;61;20386;-61
2023/06/07 02:24:17;0.00;0.00;0.62;0.00;0.00;0.62;3.23;2.57;;;29.10;23.20;;;;;;2252128;61;20343;-61
2023/06/07 02:27:03;0.00;0.00;0.62;0.00;0.00;0.62;4.73;3.83;;;29.10;23.20;;;;;;2249045;61;20421;-64
2023/06/07 02:29:48;0.00;0.00;0.62;0.00;0.00;0.62;3.30;2.97;;;29.10;23.20;;;;;;2252112;61;20370;-61
2023/06/07 02:32:35;0.00;0.00;0.62;0.00;0.00;0.62;3.60;3.20;;;29.10;23.20;;;;;;2248844;61;20363;-62
2023/06/07 02:35:21;0.00;0.00;0.62;0.00;0.00;0.62;3.50;2.67;;;29.10;23.20;;;;;;2252227;61;20394;-59
2023/06/07 02:38:06;0.00;0.00;0.62;0.00;0.00;0.62;3.10;2.80;;;29.10;23.20;;;;;;2249099;61;20362;-62
2023/06/07 02:40:54;0.00;0.00;0.62;0.00;0.00;0.62;3.40;3.10;;;29.10;23.20;;;;;;2252074;61;20378;-61
2023/06/07 02:43:39;0.00;0.00;0.62;0.00;0.00;0.62;4.37;3.47;;;29.10;23.20;;;;;;2252142;61;20940;-61
2023/06/07 02:46:24;0.00;0.00;0.62;0.00;0.00;0.62;3.60;3.20;;;29.10;23.20;;;;;;2252197;61;20362;-61
2023/06/07 02:49:10;0.00;0.00;0.62;0.00;0.00;0.62;3.33;3.03;;;29.10;23.20;;;;;;2248946;61;20455;-62
2023/06/07 02:51:55;0.00;0.00;0.62;0.00;0.00;0.62;3.53;3.13;;;29.10;23.20;;;;;;2255682;61;20391;-62
2023/06/07 02:54:40;0.00;0.00;0.62;0.00;0.00;0.62;3.87;3.47;;;29.10;23.20;;;;;;2253614;61;20881;-62
2023/06/07 02:57:25;0.00;0.00;0.62;0.00;0.00;0.62;4.33;3.57;;;29.00;23.10;;;;;;2253829;61;20382;-63
2023/06/07 03:00:11;0.00;0.00;0.62;0.00;0.00;0.62;3.70;3.00;;;29.10;23.20;;;;;;2254911;61;20485;-61
2023/06/07 03:03:19;0.00;0.00;0.62;0.00;0.00;0.62;4.40;3.00;;;29.10;23.20;;;;;;2254710;61;20381;-62
2023/06/07 03:06:15;0.00;0.00;0.62;0.00;0.00;0.62;4.10;3.53;;;29.10;23.20;;;;;;2254488;61;21072;-62
2023/06/07 03:09:00;0.00;0.00;0.62;0.00;0.00;0.62;4.10;3.37;;;29.00;23.20;;;;;;2253745;61;20784;-62
2023/06/07 03:11:48;0.00;0.00;0.62;0.00;0.00;0.62;4.33;3.20;;;29.00;23.20;;;;;;2251305;61;20417;-62
2023/06/07 03:14:35;0.00;0.00;0.62;0.00;0.00;0.62;3.37;2.93;;;29.00;23.20;;;;;;2254231;61;20437;-62
2023/06/07 03:17:21;0.00;0.00;0.62;0.00;0.00;0.62;3.33;3.00;;;29.00;23.20;;;;;;2253995;61;20359;-63
2023/06/07 03:20:11;0.00;0.00;0.62;0.00;0.00;0.62;4.50;3.20;;;29.00;23.20;;;;;;2254207;61;20366;-62
2023/06/07 03:22:58;0.00;0.00;0.62;0.00;0.00;0.62;3.53;2.73;;;29.00;23.20;;;;;;2254090;61;21018;-62
2023/06/07 03:25:43;0.00;0.00;0.62;0.00;0.00;0.62;3.70;3.10;;;29.00;23.20;;;;;;2257199;61;20358;-62
2023/06/07 03:28:29;0.00;0.00;0.62;0.00;0.00;0.62;5.97;3.30;;;29.00;23.20;;;;;;2254102;61;20370;-62
2023/06/07 03:31:14;0.00;0.00;0.62;0.00;0.00;0.62;4.07;3.10;;;29.00;23.20;;;;;;2253890;61;20788;-62
2023/06/07 03:34:10;0.00;0.00;0.62;0.00;0.00;0.62;3.43;3.13;;;29.00;23.20;;;;;;2254427;61;20382;-62
2023/06/07 03:36:55;0.00;0.00;0.62;0.00;0.00;0.62;3.93;3.10;;;29.00;23.20;;;;;;2251612;61;20378;-62
2023/06/07 03:39:43;0.00;0.00;0.62;0.00;0.00;0.62;3.63;3.23;;;29.00;23.20;;;;;;2254675;61;20431;-61
2023/06/07 03:42:29;0.00;0.00;0.62;0.00;0.00;0.62;4.13;3.50;;;29.00;23.30;;;;;;2251572;61;20366;-62
2023/06/07 03:45:14;0.00;0.00;0.62;0.00;0.00;0.62;4.80;3.30;;;28.90;23.20;;;;;;2253911;61;20371;-62
2023/06/07 03:47:59;0.00;0.00;0.62;0.00;0.00;0.62;4.73;3.40;;;29.00;23.30;;;;;;2253812;61;20366;-62
2023/06/07 03:50:45;0.00;0.00;0.62;0.00;0.00;0.62;4.23;3.17;;;28.90;23.20;;;;;;2254515;61;20387;-62
2023/06/07 03:53:33;0.00;0.00;0.62;0.00;0.00;0.62;4.30;3.07;;;28.90;23.70;;;;;;2253843;61;20441;-62
2023/06/07 03:56:21;0.00;0.00;0.62;0.00;0.00;0.62;4.23;3.33;;;28.90;23.30;;;;;;2251367;61;20465;-62
2023/06/07 03:59:07;0.00;0.00;0.62;0.00;0.00;0.62;5.60;3.40;;;28.90;23.20;;;;;;2254193;61;20378;-61
2023/06/07 04:01:57;0.00;0.00;0.62;0.00;0.00;0.62;3.90;3.33;;;29.00;23.30;;;;;;2253942;61;20429;-62
2023/06/07 04:04:42;0.00;0.00;0.62;0.00;0.00;0.62;3.00;2.63;;;28.90;23.20;;;;;;2251072;61;20359;-62
2023/06/07 04:07:27;0.00;0.00;0.62;0.00;0.00;0.62;3.87;2.80;;;28.90;23.20;;;;;;2254133;61;20390;-62
2023/06/07 04:10:11;0.00;0.00;0.62;0.00;0.00;0.62;3.67;3.37;;;28.90;23.30;;;;;;2253729;61;20413;-62
2023/06/07 04:12:58;0.00;0.00;0.62;0.00;0.00;0.62;3.70;2.97;;;28.90;23.30;;;;;;2257034;61;20455;-62
2023/06/07 04:15:44;0.00;0.00;0.62;0.00;0.00;0.62;4.50;2.80;;;28.90;23.30;;;;;;2254292;61;20394;-62
2023/06/07 04:18:29;0.00;0.00;0.62;0.00;0.00;0.62;3.43;2.83;;;28.90;23.30;;;;;;2254007;61;20366;-62
2023/06/07 04:21:14;0.00;0.00;0.62;0.00;0.00;0.62;5.20;3.37;;;28.90;23.30;;;;;;2253935;61;20486;-62
2023/06/07 04:24:02;0.00;0.00;0.62;0.00;0.00;0.62;3.97;3.50;;;28.90;23.30;;;;;;2253806;61;20366;-62
2023/06/07 04:26:48;0.00;0.00;0.62;0.00;0.00;0.62;3.30;3.00;;;28.90;23.30;;;;;;2254277;61;20414;-61
2023/06/07 04:29:40;0.00;0.00;0.62;0.00;0.00;0.62;5.73;3.30;;;28.90;23.30;;;;;;2251322;61;20414;-62
2023/06/07 04:32:25;0.00;0.00;0.62;0.00;0.00;0.62;3.00;2.70;;;28.90;23.30;;;;;;2253860;61;20425;-63
2023/06/07 04:35:14;0.00;0.00;0.62;0.00;0.00;0.62;4.30;3.20;;;28.90;23.30;;;;;;2253920;61;20437;-62
2023/06/07 04:38:01;0.00;0.00;0.62;0.00;0.00;0.62;4.73;3.37;;;28.90;23.30;;;;;;2254272;61;20418;-61
2023/06/07 04:40:50;0.00;0.00;0.62;0.00;0.00;0.62;4.03;2.73;;;28.80;23.30;;;;;;2251509;61;20386;-60
2023/06/07 04:43:40;0.00;0.00;0.62;0.00;0.00;0.62;4.77;3.33;;;28.90;23.30;;;;;;2251447;61;20363;-62
2023/06/07 04:46:33;0.00;0.00;0.62;0.00;0.00;0.62;4.40;3.53;;;28.80;23.30;;;;;;2253956;61;20908;-63
2023/06/07 04:49:19;0.00;0.00;0.62;0.00;0.00;0.62;5.13;3.40;;;28.80;23.30;;;;;;2253934;61;20375;-62
2023/06/07 04:52:07;0.00;0.00;0.62;0.00;0.00;0.62;4.03;3.47;;;28.90;23.40;;;;;;2253805;61;20415;-62
2023/06/07 04:54:56;0.00;0.00;0.62;0.00;0.00;0.62;3.67;3.07;;;28.80;23.30;;;;;;2254038;61;20889;-61
2023/06/07 04:57:45;0.00;0.00;0.62;0.00;0.00;0.62;4.40;3.70;;;28.80;23.80;;;;;;2253934;61;20417;-61
2023/06/07 05:00:34;0.00;0.00;0.62;0.00;0.00;0.62;3.50;3.20;;;28.80;23.30;;;;;;2254173;61;20414;-61
2023/06/07 05:03:24;0.00;0.00;0.62;0.00;0.00;0.62;3.70;3.30;;;28.80;23.30;;;;;;2254161;61;20447;-61
2023/06/07 05:06:12;0.00;0.00;0.62;0.00;0.00;0.62;6.47;4.70;;;28.90;23.40;;;;;;2254304;61;20359;-61
2023/06/07 05:08:58;0.00;0.00;0.62;0.00;0.00;0.62;3.43;3.13;;;28.80;23.30;;;;;;2253655;61;20366;-62
2023/06/07 05:11:43;0.00;0.00;0.62;0.00;0.00;0.62;4.67;3.30;;;28.80;23.30;;;;;;2256765;61;20387;-62
2023/06/07 05:14:27;0.00;0.00;0.62;0.00;0.00;0.62;4.50;3.13;;;28.80;23.30;;;;;;2254015;61;20415;-62
2023/06/07 05:17:16;0.00;0.00;0.62;0.00;0.00;0.62;3.80;3.13;;;28.80;23.30;;;;;;2251040;61;20367;-62
2023/06/07 05:20:10;0.00;0.00;0.62;0.00;0.00;0.62;4.23;3.47;;;28.80;23.30;;;;;;2256843;61;20371;-62
2023/06/07 05:22:56;0.00;0.00;0.62;0.00;0.00;0.62;4.47;3.30;;;28.80;23.30;;;;;;2253691;61;20370;-62
2023/06/07 05:25:41;0.00;0.00;0.62;0.00;0.00;0.62;4.43;3.30;;;28.80;23.30;;;;;;2256954;61;20387;-62
2023/06/07 05:28:27;0.00;0.00;0.62;0.00;0.00;0.62;4.63;3.50;;;28.80;23.40;;;;;;2253872;61;20418;-62
2023/06/07 05:31:15;0.00;0.00;0.62;0.00;0.00;0.62;3.83;3.20;;;28.80;23.30;;;;;;2251077;61;20471;-61
2023/06/07 05:34:00;0.00;0.00;0.62;0.00;0.00;0.62;3.93;3.50;;;28.80;23.30;;;;;;2253716;61;20363;-62
2023/06/07 05:36:46;0.00;0.00;0.62;0.00;0.00;0.62;4.23;3.83;;;28.80;23.40;;;;;;2253596;61;20362;-61
2023/06/07 05:39:31;0.00;0.00;0.62;0.00;0.00;0.62;4.17;3.30;;;28.80;23.40;;;;;;2256838;61;20409;-63
2023/06/07 05:42:16;0.00;0.00;0.62;0.00;0.00;0.62;4.73;4.03;;;28.70;23.30;;;;;;2253346;61;20378;-62
2023/06/07 05:45:04;0.00;0.00;0.62;0.00;0.00;0.62;3.60;3.30;;;28.80;23.40;;;;;;2253549;61;20900;-62
2023/06/07 05:47:49;0.00;0.00;0.62;0.00;0.00;0.62;4.33;3.90;;;28.70;23.30;;;;;;2257376;61;20781;-61
2023/06/07 05:50:34;0.00;0.00;0.62;0.00;0.00;0.62;4.63;3.43;;;28.70;23.30;;;;;;2253868;61;20809;-62
2023/06/07 05:53:21;0.00;0.00;0.62;0.00;0.00;0.62;6.00;3.13;;;28.70;23.30;;;;;;2256668;61;20402;-62
2023/06/07 05:56:06;0.00;0.00;0.62;0.00;0.00;0.62;4.10;3.67;;;28.80;23.40;;;;;;2253911;61;20967;-62
2023/06/07 05:58:51;0.00;0.00;0.62;0.00;0.00;0.62;4.13;3.40;;;28.70;23.40;;;;;;2256617;61;20370;-62
2023/06/07 06:01:36;0.00;0.00;0.62;0.00;0.00;0.62;4.03;3.50;;;28.70;23.40;;;;;;2253600;61;20389;-62
2023/06/07 06:04:22;0.00;0.00;0.62;0.00;0.00;0.62;4.03;3.37;;;28.70;23.40;;;;;;2256968;61;20374;-62
2023/06/07 06:07:09;0.00;0.00;0.62;0.00;0.00;0.62;5.27;3.40;;;28.70;23.40;;;;;;2256548;61;20405;-61
2023/06/07 06:09:55;0.00;0.00;0.62;0.00;0.00;0.62;3.60;3.30;;;28.70;23.40;;;;;;2257009;61;20410;-63
2023/06/07 06:12:40;0.00;0.00;0.62;0.00;0.00;0.62;4.30;3.60;;;28.70;23.40;;;;;;2257037;61;20417;-61
2023/06/07 06:15:25;0.00;0.00;0.62;0.00;0.00;0.62;3.97;3.30;;;28.70;23.40;;;;;;2256590;61;20394;-63
2023/06/07 06:18:10;0.00;0.00;0.62;0.00;0.00;0.62;3.53;3.20;;;28.70;23.40;;;;;;2253889;61;20454;-63
2023/06/07 06:20:54;0.00;0.00;0.62;0.00;0.00;0.62;4.43;3.83;;;28.70;23.40;;;;;;2253797;61;20390;-62
2023/06/07 06:23:39;0.00;0.00;0.62;0.00;0.00;0.62;4.90;3.87;;;28.70;23.40;;;;;;2250690;61;20402;-62
2023/06/07 06:26:27;0.00;0.00;0.62;0.00;0.00;0.62;5.37;3.27;;;28.70;23.40;;;;;;2253921;61;20770;-63
2023/06/07 06:29:12;0.00;0.00;0.62;0.00;0.00;0.62;4.13;3.03;;;28.70;23.40;;;;;;2256261;61;20937;-62
2023/06/07 06:31:56;0.00;0.00;0.62;0.00;0.00;0.62;4.63;4.03;;;28.70;23.40;;;;;;2256724;61;20405;-62
2023/06/07 06:34:41;0.00;0.00;0.62;0.00;0.00;0.62;4.87;3.67;;;28.70;23.50;;;;;;2256910;61;20875;-62
2023/06/07 06:37:25;0.00;0.00;0.62;0.00;0.00;0.62;4.23;3.27;;;28.70;23.50;;;;;;2253995;61;20363;-63
2023/06/07 06:40:12;0.00;0.00;0.62;0.00;0.00;0.62;5.07;3.40;;;28.70;23.50;;;;;;2253850;61;20382;-62
2023/06/07 06:43:00;0.00;0.00;0.62;0.00;0.00;0.62;5.20;4.13;;;28.70;23.50;;;;;;2250919;61;20405;-63
2023/06/07 06:45:53;0.00;0.00;0.62;0.00;0.00;0.62;2.90;2.70;;;28.70;23.60;;;;;;2253765;61;20402;-63
2023/06/07 06:48:38;0.00;0.00;0.62;0.00;0.00;0.62;5.37;3.57;;;28.70;23.60;;;;;;2256617;61;20373;-62
2023/06/07 06:51:22;0.00;0.00;0.62;0.00;0.00;0.62;4.60;3.40;;;28.70;23.60;;;;;;2256540;61;20373;-62
2023/06/07 06:54:07;0.00;0.00;0.62;0.00;0.00;0.62;4.27;3.73;;;28.60;23.50;;;;;;2257616;61;20451;-62
2023/06/07 06:56:51;0.00;0.00;0.62;0.00;0.00;0.62;3.43;2.93;;;28.60;23.50;;;;;;2257296;61;20363;-60
2023/06/07 06:59:38;0.00;0.00;0.62;0.00;0.00;0.62;5.23;3.70;;;28.70;23.60;;;;;;2257256;61;20368;-61
2023/06/07 07:02:22;0.00;0.00;0.62;0.00;0.00;0.62;3.60;3.30;;;28.60;23.50;;;;;;2257006;61;20924;-62
2023/06/07 07:05:09;0.00;0.00;0.62;0.00;0.00;0.62;3.83;3.00;;;28.60;23.50;;;;;;2257146;61;20362;-62
2023/06/07 07:07:54;0.00;0.00;0.62;0.00;0.00;0.62;4.47;3.10;;;28.70;23.60;;;;;;2256921;61;20362;-62
2023/06/07 07:10:41;0.00;0.00;0.62;0.00;0.00;0.62;5.37;3.63;;;28.70;23.60;;;;;;2256381;61;20382;-62
2023/06/07 07:13:26;0.00;0.00;0.62;0.00;0.00;0.62;5.50;3.40;;;28.60;23.60;;;;;;2256711;61;20378;-62
2023/06/07 07:16:12;0.00;0.00;0.62;0.00;0.00;0.62;4.07;3.40;;;28.60;23.60;;;;;;2256357;61;20398;-62
2023/06/07 07:18:57;0.00;0.00;0.62;0.00;0.00;0.62;4.80;3.40;;;28.60;23.70;;;;;;2256878;61;20359;-62
2023/06/07 07:21:43;0.00;0.00;0.62;0.00;0.00;0.62;3.77;3.13;;;28.60;23.70;;;;;;2253232;61;20471;-62
2023/06/07 07:24:28;0.00;0.00;0.62;0.00;0.00;0.62;4.57;3.40;;;28.60;23.70;;;;;;2256698;61;20361;-61
2023/06/07 07:27:12;0.00;0.00;0.62;0.00;0.00;0.62;4.00;3.10;;;28.60;23.60;;;;;;2256791;61;20424;-61
2023/06/07 07:29:58;0.00;0.00;0.62;0.00;0.00;0.62;4.53;3.80;;;28.60;23.60;;;;;;2253812;61;20366;-62
2023/06/07 07:32:44;0.00;0.00;0.62;0.00;0.00;0.62;4.53;3.27;;;28.60;23.60;;;;;;2256414;61;20402;-63
2023/06/07 07:35:29;0.00;0.00;0.62;0.00;0.00;0.62;3.33;3.03;;;28.60;23.60;;;;;;2253301;61;20483;-63
2023/06/07 07:38:18;0.00;0.00;0.62;0.00;0.00;0.62;4.27;3.60;;;28.60;23.60;;;;;;2253448;61;20414;-62
2023/06/07 07:41:04;0.00;0.00;0.62;0.00;0.00;0.62;3.40;3.10;;;28.60;23.60;;;;;;2257027;61;20375;-63
2023/06/07 07:43:49;0.00;0.00;0.62;0.00;0.00;0.62;4.30;3.30;;;28.60;23.60;;;;;;2257195;61;20366;-62
2023/06/07 07:46:35;0.00;0.00;0.62;0.00;0.00;0.62;4.77;3.30;;;28.60;23.60;;;;;;2257385;61;20383;-63
2023/06/07 07:49:23;0.00;0.00;0.62;0.00;0.00;0.62;3.80;3.13;;;28.60;23.60;;;;;;2251391;61;20378;-63
2023/06/07 07:52:12;0.00;0.00;0.62;0.00;0.00;0.62;3.87;3.20;;;28.60;23.70;;;;;;2257384;61;20383;-62
2023/06/07 07:55:02;0.00;0.00;0.62;0.00;0.00;0.62;4.63;3.40;;;28.60;23.70;;;;;;2257533;61;20438;-62
2023/06/07 07:57:49;0.00;0.00;0.62;0.00;0.00;0.62;4.87;3.27;;;28.60;23.70;;;;;;2253860;61;20367;-64
2023/06/07 08:00:34;0.00;0.00;0.62;0.00;0.00;0.62;4.07;3.20;;;28.60;23.70;;;;;;2257171;61;20387;-63
2023/06/07 08:03:19;0.00;0.00;0.62;0.00;0.00;0.62;6.53;3.60;;;28.60;23.70;;;;;;2257320;61;20390;-62
2023/06/07 08:06:06;0.00;0.00;0.62;0.00;0.00;0.62;4.40;3.40;;;28.60;23.70;;;;;;2257480;61;20363;-63
2023/06/07 08:08:51;0.00;0.00;0.62;0.00;0.00;0.62;3.90;3.60;;;28.60;23.70;;;;;;2257265;61;20382;-62
2023/06/07 08:11:37;0.00;0.00;0.62;0.00;0.00;0.62;3.80;3.33;;;28.60;23.70;;;;;;2254133;61;20418;-62
2023/06/07 08:14:22;0.00;0.00;0.62;0.00;0.00;0.62;4.57;3.17;;;28.60;23.70;;;;;;2257074;61;20460;-62
2023/06/07 08:17:06;0.00;0.00;0.62;0.00;0.00;0.62;3.77;2.97;;;28.60;23.70;;;;;;2257286;61;20381;-62
2023/06/07 08:19:51;0.00;0.00;0.62;0.00;0.00;0.62;3.53;3.23;;;28.60;23.70;;;;;;2254304;61;20382;-62
2023/06/07 08:22:37;0.00;0.00;0.62;0.00;0.00;0.62;3.63;3.00;;;28.60;23.70;;;;;;2257370;61;20880;-62
2023/06/07 08:25:23;0.00;0.00;0.62;0.00;0.00;0.62;3.83;3.13;;;28.50;23.60;;;;;;2257028;61;20363;-61
2023/06/07 08:28:08;0.00;0.00;0.62;0.00;0.00;0.62;4.40;3.40;;;28.50;23.60;;;;;;2253798;61;20379;-60
2023/06/07 08:30:53;0.00;0.00;0.62;0.00;0.00;0.62;4.17;3.10;;;28.50;23.70;;;;;;2257389;61;20433;-62
2023/06/07 08:33:38;0.00;0.00;0.62;0.00;0.00;0.62;3.87;2.97;;;28.50;23.60;;;;;;2256945;61;20372;-63
2023/06/07 08:36:23;0.00;0.00;0.62;0.00;0.00;0.62;4.00;2.80;;;28.50;23.70;;;;;;2257289;61;20870;-61
2023/06/07 08:39:10;0.00;0.00;0.62;0.00;0.00;0.62;4.07;3.10;;;28.60;23.70;;;;;;2253696;61;20359;-62
2023/06/07 08:41:55;0.00;0.00;0.62;0.00;0.00;0.62;6.97;3.73;;;28.50;23.70;;;;;;2257075;61;20391;-62
2023/06/07 08:44:40;0.00;0.00;0.62;0.00;0.00;0.62;3.93;3.37;;;28.60;23.80;;;;;;2257018;61;20455;-63
2023/06/07 08:47:28;0.00;0.00;0.62;0.00;0.00;0.62;4.73;3.30;;;28.50;23.70;;;;;;2256988;61;20431;-62
2023/06/07 08:50:15;0.00;0.00;0.62;0.00;0.00;0.62;4.00;3.23;;;28.50;23.70;;;;;;2254152;61;20455;-62
2023/06/07 08:53:13;0.00;0.00;0.62;0.00;0.00;0.62;3.57;3.27;;;28.60;23.80;;;;;;2253711;61;20782;-62
2023/06/07 08:56:01;0.00;0.00;0.62;0.00;0.00;0.62;4.50;3.83;;;28.50;23.70;;;;;;2250771;61;20445;-59
2023/06/07 08:58:48;0.00;0.00;0.62;0.00;0.00;0.62;5.17;3.50;;;28.50;23.70;;;;;;2252537;61;20391;-60
2023/06/07 09:01:37;0.00;0.00;0.62;0.00;0.00;0.62;4.60;3.33;;;28.50;23.70;;;;;;2249267;61;20425;-60
2023/06/07 09:04:24;0.00;0.00;0.62;0.00;0.00;0.62;3.23;2.70;;;28.50;23.80;;;;;;2249145;61;20781;-58
2023/06/07 09:07:09;0.00;0.00;0.62;0.00;0.00;0.62;3.90;3.23;;;28.50;23.70;;;;;;2252704;61;20370;-60
2023/06/07 09:09:55;0.00;0.00;0.62;0.00;0.00;0.62;4.80;3.80;;;28.50;23.80;;;;;;2252446;61;20363;-59
2023/06/07 09:12:43;0.00;0.00;0.62;0.00;0.00;0.62;3.57;3.27;;;28.50;23.80;;;;;;2252180;61;20359;-60
2023/06/07 09:15:30;0.00;0.00;0.62;0.00;0.00;0.62;3.70;3.27;;;28.50;23.80;;;;;;2252506;61;20893;-60
2023/06/07 09:18:18;0.00;0.00;0.62;0.00;0.00;0.62;3.60;3.00;;;28.50;23.80;;;;;;2252385;61;20417;-61
2023/06/07 09:21:19;0.00;0.00;0.62;0.00;0.00;0.62;3.73;3.13;;;28.50;23.80;;;;;;2252616;61;20395;-61
2023/06/07 09:24:05;0.00;0.00;0.62;0.00;0.00;0.62;3.40;3.10;;;28.50;23.90;;;;;;2252596;61;20704;-59
2023/06/07 09:26:50;0.00;0.00;0.62;0.00;0.00;0.62;4.67;3.07;;;28.50;23.80;;;;;;2249189;61;20375;-59
2023/06/07 09:29:41;0.00;0.00;0.62;0.00;0.00;0.62;4.50;4.10;;;28.50;23.90;;;;;;2252641;61;20402;-62
2023/06/07 09:32:27;0.00;0.00;0.62;0.00;0.00;0.62;6.47;3.63;;;28.50;23.90;;;;;;2252323;61;20433;-59
2023/06/07 09:35:14;0.00;0.00;0.62;0.00;0.00;0.62;4.90;3.70;;;28.50;23.90;;;;;;2252220;61;20393;-60
2023/06/07 09:38:00;0.00;0.00;0.62;0.00;0.00;0.62;3.70;3.27;;;28.50;23.90;;;;;;2252468;61;20362;-60
2023/06/07 09:40:51;0.00;0.00;0.62;0.00;0.00;0.62;3.83;3.10;;;28.50;23.90;;;;;;2252377;61;20422;-60
2023/06/07 09:43:43;0.00;0.00;0.62;0.00;0.00;0.62;3.43;3.10;;;28.50;24.00;;;;;;2249287;61;20451;-60
2023/06/07 09:46:36;0.00;0.00;0.62;0.00;0.00;0.62;3.53;3.23;;;28.50;24.00;;;;;;2252399;61;20359;-61
2023/06/07 09:49:28;0.00;0.00;0.62;0.00;0.00;0.62;3.37;3.03;;;28.50;24.60;;;;;;2252135;61;20417;-59
2023/06/07 09:52:14;0.00;0.00;0.62;0.00;0.00;0.62;3.20;2.90;;;28.50;24.00;;;;;;2252271;61;20438;-59
2023/06/07 09:55:01;0.00;0.00;0.62;0.00;0.00;0.62;3.87;3.30;;;28.50;24.00;;;;;;2252563;61;20457;-60
2023/06/07 09:57:46;0.00;0.00;0.62;0.00;0.00;0.62;3.50;3.20;;;28.50;24.10;;;;;;2252447;61;20809;-61
2023/06/07 10:00:42;0.00;0.00;0.62;0.00;0.00;0.62;4.20;3.30;;;28.50;24.10;;;;;;2252310;61;20912;-59
2023/06/07 10:03:29;0.00;0.00;0.62;0.00;0.00;0.62;4.33;3.50;;;28.50;24.10;;;;;;2252101;61;20630;-57
2023/06/07 10:06:17;0.00;0.00;0.62;0.00;0.00;0.62;3.40;3.10;;;28.50;24.10;;;;;;2252156;61;20398;-60
2023/06/07 10:09:07;0.00;0.00;0.62;0.00;0.00;0.62;4.33;3.93;;;28.50;24.10;;;;;;2249059;61;20463;-60
2023/06/07 10:11:57;0.00;0.00;0.62;0.00;0.00;0.62;4.30;3.43;;;28.50;24.10;;;;;;2251935;61;20383;-60
2023/06/07 10:14:45;0.00;0.00;0.62;0.00;0.00;0.62;4.90;3.60;;;28.50;24.10;;;;;;2252197;61;20406;-60
2023/06/07 10:17:43;0.00;0.00;0.62;0.00;0.00;0.62;4.17;3.43;;;28.50;24.10;;;;;;2252142;61;20390;-61
2023/06/07 10:20:35;0.00;0.00;0.62;0.00;0.00;0.62;3.20;2.90;;;28.50;24.10;;;;;;2249306;61;20375;-61
2023/06/07 10:23:31;0.00;0.00;0.62;0.00;0.00;0.62;3.63;3.20;;;28.50;24.10;;;;;;2248895;61;20418;-59
2023/06/07 10:26:21;0.00;0.00;0.62;0.00;0.00;0.62;3.80;3.17;;;28.50;24.60;;;;;;2252102;61;20402;-61
2023/06/07 10:29:08;0.00;0.00;0.62;0.00;0.00;0.62;3.63;3.30;;;28.50;24.10;;;;;;2252209;61;20359;-60
2023/06/07 10:32:06;0.00;0.00;0.62;0.00;0.00;0.62;3.93;3.00;;;28.50;24.10;;;;;;2252076;61;20383;-59
2023/06/07 10:34:55;0.00;0.00;0.62;0.00;0.00;0.62;3.97;3.37;;;28.50;24.10;;;;;;2251946;61;20371;-61
2023/06/07 10:37:43;0.00;0.00;0.62;0.00;0.00;0.62;4.03;3.63;;;28.50;24.10;;;;;;2248951;61;20908;-59
2023/06/07 10:40:28;0.00;0.00;0.62;0.00;0.00;0.62;4.00;3.67;;;28.50;24.10;;;;;;2248993;61;20917;-60
2023/06/07 10:43:13;0.00;0.00;0.62;0.00;0.00;0.62;4.43;4.03;;;28.60;24.20;;;;;;2252248;61;20398;-61
2023/06/07 10:46:20;0.00;0.00;0.62;0.00;0.00;0.62;3.43;3.13;;;28.50;24.20;;;;;;2252372;61;20362;-67
2023/06/07 10:49:11;0.00;0.00;0.62;0.00;0.00;0.62;5.67;3.37;;;28.50;24.10;;;;;;2252082;61;20373;-60
2023/06/07 10:52:05;0.00;0.00;0.62;0.00;0.00;0.62;3.67;3.37;;;28.60;24.20;;;;;;2252159;61;20581;-59
2023/06/07 10:54:51;0.00;0.00;0.62;0.00;0.00;0.62;4.37;3.97;;;28.50;24.10;;;;;;2252086;61;20406;-64
2023/06/07 10:57:37;0.00;0.00;0.62;0.00;0.00;0.62;3.87;3.47;;;28.50;24.10;;;;;;2252275;61;20374;-60
2023/06/07 11:00:31;0.00;0.00;0.62;0.00;0.00;0.62;4.40;3.77;;;28.60;24.20;;;;;;2248975;61;20402;-59